createdAt,value
2018-11-13T00:01:05.488Z,60.93
2018-11-13T00:03:33.186Z,60.99
2018-11-13T00:06:00.860Z,60.99
2018-11-13T00:08:28.581Z,60.72
2018-11-13T00:10:56.258Z,60.87
2018-11-13T00:13:23.909Z,60.76
2018-11-13T00:15:51.612Z,60.35
2018-11-13T00:18:19.263Z,60.50
2018-11-13T00:20:46.916Z,60.20
2018-11-13T00:23:14.654Z,60.66
2018-11-13T00:25:42.408Z,60.97
2018-11-13T00:28:10.081Z,60.17
2018-11-13T00:30:37.712Z,60.15
2018-11-13T00:33:05.638Z,60.15
2018-11-13T00:35:33.313Z,60.33
2018-11-13T00:38:01.002Z,60.81
2018-11-13T00:40:28.697Z,60.86
2018-11-13T00:42:56.404Z,59.96
2018-11-13T00:45:24.209Z,60.62
2018-11-13T00:47:51.948Z,60.17
2018-11-13T00:50:20.737Z,60.77
2018-11-13T00:52:48.601Z,60.31
2018-11-13T00:55:16.513Z,60.00
2018-11-13T00:57:44.242Z,60.11
2018-11-13T01:00:13.206Z,60.39
2018-11-13T01:02:41.103Z,60.54
2018-11-13T01:05:09.915Z,60.64
2018-11-13T01:07:37.622Z,60.64
2018-11-13T01:10:05.499Z,60.25
2018-11-13T01:12:33.223Z,60.39
2018-11-13T01:15:00.967Z,60.79
2018-11-13T01:17:28.753Z,60.05
2018-11-13T01:19:56.449Z,60.44
2018-11-13T01:22:24.191Z,60.37
2018-11-13T01:24:51.866Z,60.75
2018-11-13T01:27:19.537Z,60.19
2018-11-13T01:29:52.497Z,60.61
2018-11-13T01:32:20.189Z,60.82
2018-11-13T01:34:47.840Z,60.38
2018-11-13T01:37:15.545Z,60.11
2018-11-13T01:39:43.242Z,60.84
2018-11-13T01:42:10.909Z,60.20
2018-11-13T01:44:38.553Z,60.84
2018-11-13T01:47:06.306Z,60.41
2018-11-13T01:49:34.094Z,59.95
2018-11-13T01:52:01.749Z,60.50
2018-11-13T01:54:29.639Z,59.80
2018-11-13T01:56:57.279Z,60.01
2018-11-13T01:59:25.045Z,60.42
2018-11-13T02:01:52.715Z,59.90
2018-11-13T02:04:20.405Z,60.39
2018-11-13T02:06:48.050Z,60.37
2018-11-13T02:09:15.866Z,59.62
2018-11-13T02:11:43.518Z,59.90
2018-11-13T02:14:11.177Z,60.09
2018-11-13T02:16:38.856Z,60.40
2018-11-13T02:19:06.532Z,60.13
2018-11-13T02:21:34.240Z,60.49
2018-11-13T02:24:02.011Z,60.14
2018-11-13T02:26:29.905Z,60.47
2018-11-13T02:28:57.666Z,59.81
2018-11-13T02:31:25.366Z,60.47
2018-11-13T02:33:53.068Z,60.44
2018-11-13T02:36:20.793Z,60.01
2018-11-13T02:38:48.441Z,60.00
2018-11-13T02:41:16.146Z,60.56
2018-11-13T02:43:43.838Z,60.42
2018-11-13T02:46:11.570Z,60.51
2018-11-13T02:48:39.214Z,59.94
2018-11-13T02:51:07.009Z,60.58
2018-11-13T02:53:34.708Z,59.78
2018-11-13T02:56:02.446Z,60.48
2018-11-13T02:58:30.150Z,60.30
2018-11-13T03:00:57.938Z,59.72
2018-11-13T03:03:25.586Z,59.90
2018-11-13T03:05:53.317Z,59.74
2018-11-13T03:08:21.059Z,60.43
2018-11-13T03:10:48.772Z,60.36
2018-11-13T03:13:16.464Z,60.43
2018-11-13T03:15:44.195Z,60.16
2018-11-13T03:18:11.861Z,59.48
2018-11-13T03:20:39.674Z,59.85
2018-11-13T03:23:07.345Z,60.15
2018-11-13T03:25:35.079Z,59.71
2018-11-13T03:28:02.879Z,60.33
2018-11-13T03:30:30.578Z,59.53
2018-11-13T03:32:58.306Z,60.25
2018-11-13T03:35:25.989Z,60.33
2018-11-13T03:37:53.722Z,59.56
2018-11-13T03:40:21.397Z,60.39
2018-11-13T03:42:49.758Z,60.05
2018-11-13T03:45:17.962Z,60.05
2018-11-13T03:47:45.649Z,59.69
2018-11-13T03:50:15.231Z,60.35
2018-11-13T03:52:43.629Z,59.88
2018-11-13T03:55:12.178Z,60.15
2018-11-13T03:57:40.845Z,59.75
2018-11-13T04:00:09.933Z,60.35
2018-11-13T04:02:38.081Z,60.57
2018-11-13T04:05:06.620Z,59.98
2018-11-13T04:07:34.353Z,59.58
2018-11-13T04:10:02.077Z,59.88
2018-11-13T04:12:29.778Z,60.24
2018-11-13T04:14:57.629Z,59.67
2018-11-13T04:17:25.321Z,59.65
2018-11-13T04:19:53.070Z,59.51
2018-11-13T04:22:20.773Z,60.10
2018-11-13T04:24:48.453Z,60.01
2018-11-13T04:27:16.107Z,61.07
2018-11-13T04:29:44.237Z,60.47
2018-11-13T04:32:12.136Z,60.54
2018-11-13T04:34:39.821Z,60.03
2018-11-13T04:37:07.480Z,60.42
2018-11-13T04:39:35.584Z,60.15
2018-11-13T04:42:03.709Z,60.09
2018-11-13T04:44:31.455Z,60.34
2018-11-13T04:46:59.101Z,61.03
2018-11-13T04:49:26.776Z,60.75
2018-11-13T04:51:54.868Z,60.65
2018-11-13T04:54:22.739Z,60.75
2018-11-13T04:56:50.510Z,60.93
2018-11-13T04:59:18.205Z,60.14
2018-11-13T05:01:46.114Z,60.15
2018-11-13T05:04:14.252Z,60.31
2018-11-13T05:06:42.118Z,60.09
2018-11-13T05:09:09.827Z,60.27
2018-11-13T05:11:37.479Z,61.15
2018-11-13T05:14:05.312Z,60.18
2018-11-13T05:16:32.985Z,61.09
2018-11-13T05:19:00.734Z,60.67
2018-11-13T05:21:28.497Z,60.56
2018-11-13T05:23:56.238Z,60.73
2018-11-13T05:26:24.011Z,61.03
2018-11-13T05:28:51.764Z,61.16
2018-11-13T05:31:19.518Z,61.40
2018-11-13T05:33:47.187Z,60.79
2018-11-13T05:36:15.009Z,61.37
2018-11-13T05:38:42.762Z,61.25
2018-11-13T05:41:10.429Z,61.03
2018-11-13T05:43:38.107Z,61.06
2018-11-13T05:46:06.016Z,61.10
2018-11-13T05:48:33.731Z,61.14
2018-11-13T05:51:01.385Z,60.60
2018-11-13T05:53:29.069Z,61.17
2018-11-13T05:55:56.800Z,61.18
2018-11-13T05:58:24.594Z,60.95
2018-11-13T06:00:52.340Z,60.80
2018-11-13T06:03:20.039Z,60.57
2018-11-13T06:05:47.745Z,60.30
2018-11-13T06:08:17.725Z,61.07
2018-11-13T06:10:45.735Z,60.75
2018-11-13T06:13:13.621Z,60.77
2018-11-13T06:15:41.322Z,61.20
2018-11-13T06:18:09.107Z,61.21
2018-11-13T06:20:36.775Z,60.50
2018-11-13T06:23:04.743Z,61.10
2018-11-13T06:25:32.418Z,61.03
2018-11-13T06:28:00.198Z,60.85
2018-11-13T06:30:27.869Z,60.56
2018-11-13T06:32:55.633Z,60.91
2018-11-13T06:35:23.336Z,60.47
2018-11-13T06:37:51.109Z,60.60
2018-11-13T06:40:18.822Z,60.99
2018-11-13T06:42:46.560Z,60.90
2018-11-13T06:45:17.994Z,61.13
2018-11-13T06:47:47.450Z,60.96
2018-11-13T06:50:15.312Z,61.01
2018-11-13T06:52:43.662Z,60.45
2018-11-13T06:55:13.758Z,60.26
2018-11-13T06:57:41.490Z,60.71
2018-11-13T07:00:09.541Z,60.32
2018-11-13T07:02:37.583Z,60.37
2018-11-13T07:05:06.871Z,60.90
2018-11-13T07:07:34.589Z,60.61
2018-11-13T07:10:02.330Z,60.26
2018-11-13T07:12:30.087Z,61.17
2018-11-13T07:14:57.809Z,60.75
2018-11-13T07:17:25.529Z,60.72
2018-11-13T07:19:53.227Z,60.45
2018-11-13T07:22:21.085Z,61.07
2018-11-13T07:24:48.857Z,61.25
2018-11-13T07:27:16.663Z,60.94
2018-11-13T07:29:44.419Z,60.89
2018-11-13T07:32:12.151Z,59.76
2018-11-13T07:34:39.932Z,60.06
2018-11-13T07:37:07.617Z,60.11
2018-11-13T07:39:35.348Z,60.32
2018-11-13T07:42:03.161Z,60.10
2018-11-13T07:44:30.893Z,59.98
2018-11-13T07:46:58.634Z,60.14
2018-11-13T07:49:26.325Z,59.79
2018-11-13T07:51:54.013Z,59.84
2018-11-13T07:54:21.703Z,60.02
2018-11-13T07:56:49.462Z,60.66
2018-11-13T07:59:17.287Z,59.91
2018-11-13T08:01:45.097Z,60.04
2018-11-13T08:04:12.894Z,60.29
2018-11-13T08:06:40.780Z,60.38
2018-11-13T08:09:08.880Z,60.32
2018-11-13T08:11:36.677Z,60.68
2018-11-13T08:14:04.524Z,60.24
2018-11-13T08:16:32.255Z,60.34
2018-11-13T08:19:00.017Z,61.09
2018-11-13T08:21:27.753Z,60.87
2018-11-13T08:23:55.557Z,60.54
2018-11-13T08:26:23.362Z,60.52
2018-11-13T08:28:51.058Z,60.74
2018-11-13T08:31:18.834Z,60.46
2018-11-13T08:33:46.575Z,60.94
2018-11-13T08:36:14.285Z,60.76
2018-11-13T08:38:42.075Z,60.17
2018-11-13T08:41:09.977Z,60.30
2018-11-13T08:43:37.823Z,60.70
2018-11-13T08:46:05.741Z,60.54
2018-11-13T08:48:33.735Z,60.76
2018-11-13T08:51:01.490Z,60.78
2018-11-13T08:53:29.240Z,60.25
2018-11-13T08:55:57.000Z,60.48
2018-11-13T08:58:24.907Z,59.95
2018-11-13T09:00:52.510Z,60.07
2018-11-13T09:03:20.352Z,59.88
2018-11-13T09:05:48.097Z,59.89
2018-11-13T09:08:15.778Z,60.59
2018-11-13T09:10:43.478Z,59.79
2018-11-13T09:13:11.346Z,60.53
2018-11-13T09:15:39.146Z,59.85
2018-11-13T09:18:06.941Z,59.95
2018-11-13T09:20:34.612Z,60.47
2018-11-13T09:23:02.348Z,60.58
2018-11-13T09:25:30.128Z,59.66
2018-11-13T09:27:57.828Z,60.48
2018-11-13T09:30:25.862Z,60.02
2018-11-13T09:32:53.440Z,60.25
2018-11-13T09:35:21.177Z,59.57
2018-11-13T09:37:48.932Z,59.24
2018-11-13T09:40:17.594Z,59.33
2018-11-13T09:42:46.244Z,59.94
2018-11-13T09:45:14.881Z,59.83
2018-11-13T09:47:42.723Z,59.54
2018-11-13T09:50:11.470Z,59.68
2018-11-13T09:52:39.578Z,59.90
2018-11-13T09:55:08.021Z,59.75
2018-11-13T09:57:35.893Z,59.96
2018-11-13T10:00:04.110Z,59.82
2018-11-13T10:02:32.291Z,60.28
2018-11-13T10:05:00.174Z,60.80
2018-11-13T10:07:27.261Z,60.06
2018-11-13T10:09:55.045Z,60.03
2018-11-13T10:12:22.737Z,60.82
2018-11-13T10:14:50.447Z,60.07
2018-11-13T10:17:18.232Z,60.39
2018-11-13T10:19:46.003Z,60.23
2018-11-13T10:22:13.725Z,60.71
2018-11-13T10:24:41.433Z,60.11
2018-11-13T10:27:09.249Z,60.29
2018-11-13T10:29:36.884Z,60.78
2018-11-13T10:32:04.533Z,60.87
2018-11-13T10:34:32.177Z,61.03
2018-11-13T10:36:59.850Z,60.85
2018-11-13T10:39:27.497Z,60.62
2018-11-13T10:41:55.108Z,60.69
2018-11-13T10:44:22.770Z,61.02
2018-11-13T10:46:50.502Z,61.11
2018-11-13T10:49:18.184Z,60.71
2018-11-13T10:51:45.792Z,61.32
2018-11-13T10:54:13.444Z,60.64
2018-11-13T10:56:41.099Z,60.49
2018-11-13T10:59:08.846Z,60.41
2018-11-13T11:01:41.859Z,60.54
2018-11-13T11:04:14.761Z,60.99
2018-11-13T11:06:42.413Z,61.05
2018-11-13T11:09:10.453Z,60.55
2018-11-13T11:11:38.738Z,60.44
2018-11-13T11:14:06.520Z,60.14
2018-11-13T11:16:33.993Z,60.33
2018-11-13T11:19:01.734Z,60.63
2018-11-13T11:21:29.326Z,60.44
2018-11-13T11:23:56.983Z,61.02
2018-11-13T11:26:24.649Z,60.14
2018-11-13T11:28:52.303Z,60.28
2018-11-13T11:31:19.922Z,61.10
2018-11-13T11:33:47.602Z,60.32
2018-11-13T11:36:15.231Z,60.25
2018-11-13T11:38:42.929Z,60.60
2018-11-13T11:41:10.501Z,60.98
2018-11-13T11:43:38.374Z,60.77
2018-11-13T11:46:06.014Z,60.56
2018-11-13T11:48:33.657Z,61.07
2018-11-13T11:51:01.309Z,60.60
2018-11-13T11:53:28.921Z,60.94
2018-11-13T11:55:56.546Z,60.41
2018-11-13T11:58:24.221Z,59.88
2018-11-13T12:00:51.889Z,60.39
2018-11-13T12:03:19.500Z,60.14
2018-11-13T12:05:47.154Z,60.06
2018-11-13T12:08:14.774Z,60.87
2018-11-13T12:10:42.433Z,59.96
2018-11-13T12:13:10.070Z,60.23
2018-11-13T12:15:37.691Z,60.34
2018-11-13T12:18:05.636Z,60.43
2018-11-13T12:20:33.275Z,60.39
2018-11-13T12:23:00.909Z,60.52
2018-11-13T12:25:28.525Z,59.97
2018-11-13T12:27:56.152Z,60.77
2018-11-13T12:30:24.429Z,60.84
2018-11-13T12:32:52.642Z,60.81
2018-11-13T12:35:21.047Z,60.69
2018-11-13T12:37:48.703Z,60.49
2018-11-13T12:40:18.824Z,60.02
2018-11-13T12:42:47.189Z,60.35
2018-11-13T12:45:14.841Z,60.38
2018-11-13T12:47:43.089Z,59.79
2018-11-13T12:50:11.782Z,60.51
2018-11-13T12:52:39.405Z,59.93
2018-11-13T12:55:10.318Z,60.74
2018-11-13T12:57:37.951Z,60.34
2018-11-13T13:00:08.031Z,60.27
2018-11-13T13:02:35.661Z,59.91
2018-11-13T13:05:03.305Z,60.12
2018-11-13T13:07:30.937Z,59.89
2018-11-13T13:09:58.550Z,60.23
2018-11-13T13:12:26.186Z,59.85
2018-11-13T13:14:53.936Z,60.25
2018-11-13T13:17:21.498Z,60.65
2018-11-13T13:19:49.119Z,60.08
2018-11-13T13:22:16.793Z,60.13
2018-11-13T13:24:44.394Z,59.89
2018-11-13T13:27:12.027Z,59.97
2018-11-13T13:29:39.698Z,59.86
2018-11-13T13:32:07.322Z,60.14
2018-11-13T13:34:34.958Z,60.14
2018-11-13T13:37:02.590Z,60.21
2018-11-13T13:39:30.221Z,60.23
2018-11-13T13:41:57.860Z,60.35
2018-11-13T13:44:25.494Z,59.87
2018-11-13T13:46:53.179Z,60.15
2018-11-13T13:49:20.814Z,59.83
2018-11-13T13:51:48.449Z,60.39
2018-11-13T13:54:16.095Z,60.67
2018-11-13T13:56:43.738Z,59.86
2018-11-13T13:59:11.356Z,60.15
2018-11-13T14:01:38.973Z,60.42
2018-11-13T14:04:06.621Z,60.56
2018-11-13T14:06:34.405Z,60.28
2018-11-13T14:09:02.059Z,60.38
2018-11-13T14:11:29.696Z,60.85
2018-11-13T14:13:57.324Z,60.81
2018-11-13T14:16:24.950Z,60.07
2018-11-13T14:18:52.644Z,60.14
2018-11-13T14:21:20.301Z,60.85
2018-11-13T14:23:47.929Z,60.04
2018-11-13T14:26:15.563Z,60.38
2018-11-13T14:28:43.217Z,60.70
2018-11-13T14:31:10.847Z,60.24
2018-11-13T14:33:38.499Z,60.73
2018-11-13T14:36:06.659Z,60.74
2018-11-13T14:38:34.305Z,60.61
2018-11-13T14:41:02.004Z,60.03
2018-11-13T14:43:29.654Z,59.97
2018-11-13T14:45:57.320Z,60.04
2018-11-13T14:48:24.935Z,60.35
2018-11-13T14:50:52.555Z,60.79
2018-11-13T14:53:20.288Z,59.85
2018-11-13T14:55:47.866Z,60.70
2018-11-13T14:58:16.574Z,59.96
2018-11-13T15:00:44.408Z,60.27
2018-11-13T15:03:13.428Z,60.42
2018-11-13T15:05:41.057Z,59.86
2018-11-13T15:08:09.332Z,60.32
2018-11-13T15:10:44.725Z,59.94
2018-11-13T15:13:12.769Z,60.18
2018-11-13T15:15:40.469Z,59.88
2018-11-13T15:18:08.406Z,60.60
2018-11-13T15:20:36.083Z,60.74
2018-11-13T15:23:03.694Z,60.42
2018-11-13T15:25:31.317Z,60.22
2018-11-13T15:27:58.972Z,60.30
2018-11-13T15:30:28.666Z,60.95
2018-11-13T15:32:57.056Z,60.98
2018-11-13T15:35:24.673Z,60.31
2018-11-13T15:37:52.320Z,60.37
2018-11-13T15:40:22.522Z,60.36
2018-11-13T15:42:50.148Z,60.67
2018-11-13T15:45:18.290Z,60.73
2018-11-13T15:47:46.841Z,60.46
2018-11-13T15:50:17.410Z,60.89
2018-11-13T15:52:45.292Z,60.73
2018-11-13T15:55:13.458Z,61.14
2018-11-13T15:57:41.859Z,60.26
2018-11-13T16:00:12.600Z,60.11
2018-11-13T16:02:41.096Z,60.57
2018-11-13T16:05:12.416Z,60.23
2018-11-13T16:07:40.033Z,60.59
2018-11-13T16:10:07.718Z,60.68
2018-11-13T16:12:35.342Z,60.95
2018-11-13T16:15:03.049Z,60.82
2018-11-13T16:17:30.710Z,59.95
2018-11-13T16:19:58.332Z,60.19
2018-11-13T16:22:25.957Z,60.62
2018-11-13T16:24:53.577Z,60.63
2018-11-13T16:27:21.238Z,60.95
2018-11-13T16:29:48.972Z,60.31
2018-11-13T16:32:16.522Z,60.61
2018-11-13T16:34:44.159Z,60.13
2018-11-13T16:37:11.791Z,60.90
2018-11-13T16:39:39.451Z,59.84
2018-11-13T16:42:07.173Z,60.96
2018-11-13T16:44:34.803Z,60.08
2018-11-13T16:47:02.456Z,60.81
2018-11-13T16:49:30.102Z,60.66
2018-11-13T16:51:57.724Z,60.40
2018-11-13T16:54:29.557Z,60.65
2018-11-13T16:56:58.262Z,60.54
2018-11-13T16:59:25.884Z,60.57
2018-11-13T17:01:53.533Z,60.86
2018-11-13T17:04:21.224Z,60.62
2018-11-13T17:06:49.043Z,60.97
2018-11-13T17:09:16.547Z,60.66
2018-11-13T17:11:44.248Z,60.75
2018-11-13T17:14:11.890Z,60.31
2018-11-13T17:16:39.509Z,60.19
2018-11-13T17:19:07.155Z,60.73
2018-11-13T17:21:34.857Z,60.51
2018-11-13T17:24:02.553Z,60.21
2018-11-13T17:26:30.375Z,60.86
2018-11-13T17:28:57.994Z,60.65
2018-11-13T17:31:25.686Z,60.09
2018-11-13T17:33:53.426Z,60.07
2018-11-13T17:36:21.109Z,59.95
2018-11-13T17:38:48.733Z,60.04
2018-11-13T17:41:16.376Z,60.64
2018-11-13T17:43:44.000Z,60.40
2018-11-13T17:46:11.653Z,60.27
2018-11-13T17:48:39.282Z,60.27
2018-11-13T17:51:06.900Z,60.19
2018-11-13T17:53:34.601Z,60.31
2018-11-13T17:56:02.258Z,60.18
2018-11-13T17:58:29.941Z,60.95
2018-11-13T18:00:57.657Z,60.72
2018-11-13T18:03:25.315Z,60.43
2018-11-13T18:05:52.956Z,60.28
2018-11-13T18:08:20.572Z,60.60
2018-11-13T18:10:48.233Z,60.74
2018-11-13T18:13:15.910Z,60.23
2018-11-13T18:15:43.549Z,60.38
2018-11-13T18:18:11.214Z,60.15
2018-11-13T18:20:39.822Z,60.17
2018-11-13T18:23:07.607Z,60.76
2018-11-13T18:25:35.235Z,60.52
2018-11-13T18:28:03.435Z,60.72
2018-11-13T18:30:32.194Z,60.71
2018-11-13T18:33:00.504Z,60.34
2018-11-13T18:35:29.420Z,60.59
2018-11-13T18:37:58.063Z,61.28
2018-11-13T18:40:26.189Z,61.31
2018-11-13T18:42:55.160Z,60.51
2018-11-13T18:45:24.629Z,60.49
2018-11-13T18:47:52.239Z,60.94
2018-11-13T18:50:23.353Z,60.70
2018-11-13T18:52:50.937Z,61.15
2018-11-13T18:55:18.840Z,60.48
2018-11-13T18:57:46.620Z,61.15
2018-11-13T19:00:19.074Z,61.20
2018-11-13T19:02:46.722Z,61.40
2018-11-13T19:05:14.954Z,60.78
2018-11-13T19:07:42.873Z,60.36
2018-11-13T19:10:15.275Z,60.40
2018-11-13T19:12:43.025Z,61.10
2018-11-13T19:15:11.484Z,60.89
2018-11-13T19:17:39.126Z,61.10
2018-11-13T19:20:08.598Z,60.12
2018-11-13T19:22:36.164Z,60.36
2018-11-13T19:25:03.833Z,60.40
2018-11-13T19:27:31.484Z,60.49
2018-11-13T19:29:59.212Z,60.56
2018-11-13T19:32:26.829Z,60.44
2018-11-13T19:34:54.458Z,60.94
2018-11-13T19:37:22.174Z,61.30
2018-11-13T19:39:49.820Z,60.52
2018-11-13T19:42:17.486Z,60.76
2018-11-13T19:44:45.567Z,60.95
2018-11-13T19:47:13.120Z,61.37
2018-11-13T19:49:40.765Z,61.32
2018-11-13T19:52:08.757Z,61.34
2018-11-13T19:54:36.389Z,60.58
2018-11-13T19:57:04.122Z,60.64
2018-11-13T19:59:31.762Z,61.16
2018-11-13T20:01:59.366Z,61.27
2018-11-13T20:04:27.094Z,61.30
2018-11-13T20:06:54.698Z,61.18
2018-11-13T20:09:22.335Z,61.33
2018-11-13T20:11:50.091Z,60.68
2018-11-13T20:14:17.760Z,60.87
2018-11-13T20:16:45.398Z,61.52
2018-11-13T20:19:13.066Z,61.69
2018-11-13T20:21:40.761Z,61.13
2018-11-13T20:24:08.382Z,61.34
2018-11-13T20:26:36.054Z,61.33
2018-11-13T20:29:03.773Z,61.53
2018-11-13T20:31:31.536Z,61.13
2018-11-13T20:33:59.138Z,61.08
2018-11-13T20:36:26.841Z,61.85
2018-11-13T20:38:54.498Z,61.65
2018-11-13T20:41:22.117Z,61.26
2018-11-13T20:43:49.762Z,61.95
2018-11-13T20:46:17.388Z,61.75
2018-11-13T20:48:45.008Z,61.66
2018-11-13T20:51:12.635Z,61.75
2018-11-13T20:53:40.265Z,61.88
2018-11-13T20:56:07.908Z,61.50
2018-11-13T20:58:35.579Z,61.48
2018-11-13T21:01:03.222Z,61.14
2018-11-13T21:03:30.857Z,61.41
2018-11-13T21:05:58.522Z,61.35
2018-11-13T21:08:26.177Z,61.31
2018-11-13T21:11:00.416Z,61.50
2018-11-13T21:13:27.696Z,62.08
2018-11-13T21:15:55.386Z,61.67
2018-11-13T21:18:23.004Z,61.22
2018-11-13T21:20:50.731Z,61.31
2018-11-13T21:23:18.514Z,61.93
2018-11-13T21:25:46.269Z,61.92
2018-11-13T21:28:14.077Z,61.30
2018-11-13T21:30:41.995Z,61.41
2018-11-13T21:33:09.822Z,62.01
2018-11-13T21:35:37.633Z,61.67
2018-11-13T21:38:05.760Z,61.49
2018-11-13T21:40:33.454Z,62.08
2018-11-13T21:43:01.136Z,62.05
2018-11-13T21:45:29.398Z,61.70
2018-11-13T21:47:57.075Z,61.61
2018-11-13T21:50:26.423Z,61.84
2018-11-13T21:52:53.931Z,62.33
2018-11-13T21:55:23.073Z,63.01
2018-11-13T21:57:50.874Z,63.25
2018-11-13T22:00:20.933Z,62.35
2018-11-13T22:02:50.292Z,63.24
2018-11-13T22:05:17.974Z,62.81
2018-11-13T22:07:46.485Z,62.90
2018-11-13T22:10:14.180Z,62.08
2018-11-13T22:12:41.896Z,62.30
2018-11-13T22:15:11.687Z,61.96
2018-11-13T22:17:39.318Z,62.03
2018-11-13T22:20:07.555Z,61.87
2018-11-13T22:22:35.527Z,62.44
2018-11-13T22:25:02.945Z,61.75
2018-11-13T22:27:30.708Z,61.78
2018-11-13T22:29:58.425Z,61.70
2018-11-13T22:32:26.150Z,62.04
2018-11-13T22:34:53.880Z,61.81
2018-11-13T22:37:21.581Z,61.95
2018-11-13T22:39:49.373Z,62.43
2018-11-13T22:42:17.053Z,61.57
2018-11-13T22:44:44.734Z,61.53
2018-11-13T22:47:12.425Z,61.73
2018-11-13T22:49:40.066Z,61.75
2018-11-13T22:52:07.784Z,62.13
2018-11-13T22:54:35.447Z,61.86
2018-11-13T22:57:03.145Z,62.02
2018-11-13T22:59:30.830Z,61.90
2018-11-13T23:01:58.575Z,61.47
2018-11-13T23:04:26.549Z,62.13
2018-11-13T23:06:54.322Z,61.56
2018-11-13T23:09:22.012Z,61.52
2018-11-13T23:11:49.700Z,61.36
2018-11-13T23:14:17.357Z,62.19
2018-11-13T23:16:45.069Z,62.07
2018-11-13T23:19:19.278Z,61.88
2018-11-13T23:21:47.009Z,61.19
2018-11-13T23:24:14.733Z,61.40
2018-11-13T23:26:42.446Z,61.32
2018-11-13T23:29:10.114Z,62.08
2018-11-13T23:31:37.867Z,61.41
2018-11-13T23:34:05.527Z,61.61
2018-11-13T23:36:33.201Z,61.08
2018-11-13T23:39:00.992Z,61.11
2018-11-13T23:41:28.669Z,61.24
2018-11-13T23:43:56.576Z,61.34
2018-11-13T23:46:24.239Z,61.84
2018-11-13T23:48:51.964Z,61.02
2018-11-13T23:51:19.710Z,61.79
2018-11-13T23:53:47.533Z,61.58
2018-11-13T23:56:15.223Z,61.85
2018-11-13T23:58:42.945Z,61.71
